sensor_id;sensor_type;location;lat;lon;timestamp;temperature;humidity
28763;DHT22;15918;51.270;6.522;2023-07-20T00:01:36;22.90;56.80
28763;DHT22;15918;51.270;6.522;2023-07-20T00:04:01;22.90;56.80
28763;DHT22;15918;51.270;6.522;2023-07-20T00:06:27;22.90;56.90
28763;DHT22;15918;51.270;6.522;2023-07-20T00:08:55;22.90;56.90
28763;DHT22;15918;51.270;6.522;2023-07-20T00:11:25;22.90;56.90
28763;DHT22;15918;51.270;6.522;2023-07-20T00:13:51;22.90;56.90
28763;DHT22;15918;51.270;6.522;2023-07-20T00:16:16;22.80;56.90
28763;DHT22;15918;51.270;6.522;2023-07-20T00:18:42;22.80;56.90
28763;DHT22;15918;51.270;6.522;2023-07-20T00:21:07;22.80;56.90
28763;DHT22;15918;51.270;6.522;2023-07-20T00:23:33;22.80;57.00
28763;DHT22;15918;51.270;6.522;2023-07-20T00:25:59;22.80;57.00
28763;DHT22;15918;51.270;6.522;2023-07-20T00:28:24;22.70;56.90
28763;DHT22;15918;51.270;6.522;2023-07-20T00:30:50;22.70;57.00
28763;DHT22;15918;51.270;6.522;2023-07-20T00:33:16;22.70;57.10
28763;DHT22;15918;51.270;6.522;2023-07-20T00:35:42;22.70;57.30
28763;DHT22;15918;51.270;6.522;2023-07-20T00:38:08;22.70;57.50
28763;DHT22;15918;51.270;6.522;2023-07-20T00:40:40;22.70;57.80
28763;DHT22;15918;51.270;6.522;2023-07-20T00:43:07;22.70;58.00
28763;DHT22;15918;51.270;6.522;2023-07-20T00:45:34;22.70;58.20
28763;DHT22;15918;51.270;6.522;2023-07-20T00:48:01;22.70;58.30
28763;DHT22;15918;51.270;6.522;2023-07-20T00:50:28;22.70;58.40
28763;DHT22;15918;51.270;6.522;2023-07-20T00:52:57;22.60;58.50
28763;DHT22;15918;51.270;6.522;2023-07-20T00:55:26;22.60;58.60
28763;DHT22;15918;51.270;6.522;2023-07-20T00:57:53;22.60;58.60
28763;DHT22;15918;51.270;6.522;2023-07-20T01:00:19;22.60;58.80
28763;DHT22;15918;51.270;6.522;2023-07-20T01:02:45;22.60;58.80
28763;DHT22;15918;51.270;6.522;2023-07-20T01:05:11;22.60;59.00
28763;DHT22;15918;51.270;6.522;2023-07-20T01:08:05;22.60;59.00
28763;DHT22;15918;51.270;6.522;2023-07-20T01:10:39;22.60;59.00
28763;DHT22;15918;51.270;6.522;2023-07-20T01:13:06;22.60;59.20
28763;DHT22;15918;51.270;6.522;2023-07-20T01:15:36;22.60;59.20
28763;DHT22;15918;51.270;6.522;2023-07-20T01:18:01;22.60;59.20
28763;DHT22;15918;51.270;6.522;2023-07-20T01:20:31;22.60;59.40
28763;DHT22;15918;51.270;6.522;2023-07-20T01:31:27;22.50;59.30
28763;DHT22;15918;51.270;6.522;2023-07-20T01:33:56;22.50;59.40
28763;DHT22;15918;51.270;6.522;2023-07-20T01:36:24;22.50;59.50
28763;DHT22;15918;51.270;6.522;2023-07-20T01:38:51;22.50;59.50
28763;DHT22;15918;51.270;6.522;2023-07-20T01:41:18;22.50;59.50
28763;DHT22;15918;51.270;6.522;2023-07-20T01:43:43;22.50;59.50
28763;DHT22;15918;51.270;6.522;2023-07-20T01:46:09;22.40;59.50
28763;DHT22;15918;51.270;6.522;2023-07-20T01:48:35;22.40;59.40
28763;DHT22;15918;51.270;6.522;2023-07-20T01:51:00;22.40;59.40
28763;DHT22;15918;51.270;6.522;2023-07-20T01:53:26;22.40;59.40
28763;DHT22;15918;51.270;6.522;2023-07-20T01:55:56;22.40;59.40
28763;DHT22;15918;51.270;6.522;2023-07-20T01:58:21;22.40;59.40
28763;DHT22;15918;51.270;6.522;2023-07-20T02:00:47;22.40;59.40
28763;DHT22;15918;51.270;6.522;2023-07-20T02:03:13;22.40;59.40
28763;DHT22;15918;51.270;6.522;2023-07-20T02:05:39;22.30;59.40
28763;DHT22;15918;51.270;6.522;2023-07-20T02:08:04;22.30;59.40
28763;DHT22;15918;51.270;6.522;2023-07-20T02:10:30;22.30;59.40
28763;DHT22;15918;51.270;6.522;2023-07-20T02:12:56;22.30;59.40
28763;DHT22;15918;51.270;6.522;2023-07-20T02:15:22;22.30;59.40
28763;DHT22;15918;51.270;6.522;2023-07-20T02:17:48;22.30;59.40
28763;DHT22;15918;51.270;6.522;2023-07-20T02:20:13;22.30;59.40
28763;DHT22;15918;51.270;6.522;2023-07-20T02:22:39;22.30;59.40
28763;DHT22;15918;51.270;6.522;2023-07-20T02:25:05;22.30;59.40
28763;DHT22;15918;51.270;6.522;2023-07-20T02:27:35;22.30;59.40
28763;DHT22;15918;51.270;6.522;2023-07-20T02:30:01;22.30;59.40
28763;DHT22;15918;51.270;6.522;2023-07-20T02:32:28;22.30;60.00
28763;DHT22;15918;51.270;6.522;2023-07-20T02:34:54;22.20;59.40
28763;DHT22;15918;51.270;6.522;2023-07-20T02:37:19;22.20;59.40
28763;DHT22;15918;51.270;6.522;2023-07-20T02:39:45;22.20;59.40
28763;DHT22;15918;51.270;6.522;2023-07-20T02:42:11;22.20;59.40
28763;DHT22;15918;51.270;6.522;2023-07-20T02:44:36;22.20;59.40
28763;DHT22;15918;51.270;6.522;2023-07-20T02:47:02;22.20;59.40
28763;DHT22;15918;51.270;6.522;2023-07-20T02:49:28;22.20;59.30
28763;DHT22;15918;51.270;6.522;2023-07-20T02:51:54;22.20;59.30
28763;DHT22;15918;51.270;6.522;2023-07-20T02:54:20;22.20;59.30
28763;DHT22;15918;51.270;6.522;2023-07-20T02:56:46;22.10;59.30
28763;DHT22;15918;51.270;6.522;2023-07-20T02:59:11;22.20;59.30
28763;DHT22;15918;51.270;6.522;2023-07-20T03:01:37;22.20;59.30
28763;DHT22;15918;51.270;6.522;2023-07-20T03:04:03;22.20;59.30
28763;DHT22;15918;51.270;6.522;2023-07-20T03:06:29;22.20;59.30
28763;DHT22;15918;51.270;6.522;2023-07-20T03:08:56;22.10;59.30
28763;DHT22;15918;51.270;6.522;2023-07-20T03:11:22;22.10;59.30
28763;DHT22;15918;51.270;6.522;2023-07-20T03:13:47;22.10;59.30
28763;DHT22;15918;51.270;6.522;2023-07-20T03:16:17;22.10;59.30
28763;DHT22;15918;51.270;6.522;2023-07-20T03:18:43;22.10;59.40
28763;DHT22;15918;51.270;6.522;2023-07-20T03:21:10;22.10;59.40
28763;DHT22;15918;51.270;6.522;2023-07-20T03:23:40;22.10;59.50
28763;DHT22;15918;51.270;6.522;2023-07-20T03:26:06;22.10;59.50
28763;DHT22;15918;51.270;6.522;2023-07-20T03:28:34;22.10;59.60
28763;DHT22;15918;51.270;6.522;2023-07-20T03:30:59;22.10;59.70
28763;DHT22;15918;51.270;6.522;2023-07-20T03:33:26;22.10;59.80
28763;DHT22;15918;51.270;6.522;2023-07-20T03:35:53;22.10;59.80
28763;DHT22;15918;51.270;6.522;2023-07-20T03:38:19;22.10;59.80
28763;DHT22;15918;51.270;6.522;2023-07-20T03:40:52;22.10;59.80
28763;DHT22;15918;51.270;6.522;2023-07-20T03:43:18;22.10;59.90
28763;DHT22;15918;51.270;6.522;2023-07-20T03:45:44;22.10;59.90
28763;DHT22;15918;51.270;6.522;2023-07-20T03:48:11;22.00;59.90
28763;DHT22;15918;51.270;6.522;2023-07-20T03:50:37;22.00;59.90
28763;DHT22;15918;51.270;6.522;2023-07-20T03:53:03;22.00;60.00
28763;DHT22;15918;51.270;6.522;2023-07-20T03:55:28;22.00;60.00
28763;DHT22;15918;51.270;6.522;2023-07-20T03:57:54;22.00;60.00
28763;DHT22;15918;51.270;6.522;2023-07-20T04:00:20;22.00;60.10
28763;DHT22;15918;51.270;6.522;2023-07-20T04:02:45;22.00;60.10
28763;DHT22;15918;51.270;6.522;2023-07-20T04:05:11;22.00;60.10
28763;DHT22;15918;51.270;6.522;2023-07-20T04:07:36;22.00;60.10
28763;DHT22;15918;51.270;6.522;2023-07-20T04:10:02;22.00;60.20
28763;DHT22;15918;51.270;6.522;2023-07-20T04:12:28;22.00;60.30
28763;DHT22;15918;51.270;6.522;2023-07-20T04:14:53;22.00;60.30
28763;DHT22;15918;51.270;6.522;2023-07-20T04:17:19;22.00;60.30
28763;DHT22;15918;51.270;6.522;2023-07-20T04:19:45;22.00;60.40
28763;DHT22;15918;51.270;6.522;2023-07-20T04:22:10;22.00;61.20
28763;DHT22;15918;51.270;6.522;2023-07-20T04:24:36;22.00;60.50
28763;DHT22;15918;51.270;6.522;2023-07-20T04:27:01;21.90;60.50
28763;DHT22;15918;51.270;6.522;2023-07-20T04:29:27;21.90;60.50
28763;DHT22;15918;51.270;6.522;2023-07-20T04:31:52;22.00;60.60
28763;DHT22;15918;51.270;6.522;2023-07-20T04:34:18;22.00;60.60
28763;DHT22;15918;51.270;6.522;2023-07-20T04:36:44;21.90;60.60
28763;DHT22;15918;51.270;6.522;2023-07-20T04:39:10;21.90;61.50
28763;DHT22;15918;51.270;6.522;2023-07-20T04:41:35;21.90;60.60
28763;DHT22;15918;51.270;6.522;2023-07-20T04:44:02;22.00;60.80
28763;DHT22;15918;51.270;6.522;2023-07-20T04:46:28;21.90;61.30
28763;DHT22;15918;51.270;6.522;2023-07-20T04:48:53;21.90;60.70
28763;DHT22;15918;51.270;6.522;2023-07-20T04:51:19;21.90;60.70
28763;DHT22;15918;51.270;6.522;2023-07-20T04:53:46;21.90;60.80
28763;DHT22;15918;51.270;6.522;2023-07-20T04:56:12;21.90;60.90
28763;DHT22;15918;51.270;6.522;2023-07-20T04:58:37;21.90;60.90
28763;DHT22;15918;51.270;6.522;2023-07-20T05:01:03;21.90;61.00
28763;DHT22;15918;51.270;6.522;2023-07-20T05:03:29;21.90;60.90
28763;DHT22;15918;51.270;6.522;2023-07-20T05:05:54;21.90;60.90
28763;DHT22;15918;51.270;6.522;2023-07-20T05:08:20;21.90;60.90
28763;DHT22;15918;51.270;6.522;2023-07-20T05:10:47;21.90;60.80
28763;DHT22;15918;51.270;6.522;2023-07-20T05:13:13;21.90;60.50
28763;DHT22;15918;51.270;6.522;2023-07-20T05:15:39;21.90;60.50
28763;DHT22;15918;51.270;6.522;2023-07-20T05:18:04;21.90;60.50
28763;DHT22;15918;51.270;6.522;2023-07-20T05:20:30;21.90;60.70
28763;DHT22;15918;51.270;6.522;2023-07-20T05:22:57;21.90;60.70
28763;DHT22;15918;51.270;6.522;2023-07-20T05:25:22;21.90;60.70
28763;DHT22;15918;51.270;6.522;2023-07-20T05:27:48;21.90;60.80
28763;DHT22;15918;51.270;6.522;2023-07-20T05:30:14;21.90;60.90
28763;DHT22;15918;51.270;6.522;2023-07-20T05:32:39;21.90;60.80
28763;DHT22;15918;51.270;6.522;2023-07-20T05:35:05;21.90;60.60
28763;DHT22;15918;51.270;6.522;2023-07-20T05:37:31;21.90;60.50
28763;DHT22;15918;51.270;6.522;2023-07-20T05:39:57;21.90;60.50
28763;DHT22;15918;51.270;6.522;2023-07-20T05:42:23;21.90;60.50
28763;DHT22;15918;51.270;6.522;2023-07-20T05:44:48;22.00;60.70
28763;DHT22;15918;51.270;6.522;2023-07-20T05:47:15;22.00;60.80
28763;DHT22;15918;51.270;6.522;2023-07-20T05:49:41;22.00;60.70
28763;DHT22;15918;51.270;6.522;2023-07-20T05:52:06;22.00;60.50
28763;DHT22;15918;51.270;6.522;2023-07-20T05:54:32;22.00;60.70
28763;DHT22;15918;51.270;6.522;2023-07-20T05:56:58;22.00;60.80
28763;DHT22;15918;51.270;6.522;2023-07-20T05:59:24;22.00;60.60
28763;DHT22;15918;51.270;6.522;2023-07-20T06:01:50;22.00;60.90
28763;DHT22;15918;51.270;6.522;2023-07-20T06:04:15;22.00;61.00
28763;DHT22;15918;51.270;6.522;2023-07-20T06:06:41;22.00;61.00
28763;DHT22;15918;51.270;6.522;2023-07-20T06:09:10;22.00;60.90
28763;DHT22;15918;51.270;6.522;2023-07-20T06:11:40;22.00;60.50
28763;DHT22;15918;51.270;6.522;2023-07-20T06:14:11;22.10;60.50
28763;DHT22;15918;51.270;6.522;2023-07-20T06:16:37;22.10;60.70
28763;DHT22;15918;51.270;6.522;2023-07-20T06:19:03;22.10;60.50
28763;DHT22;15918;51.270;6.522;2023-07-20T06:21:29;22.10;60.40
28763;DHT22;15918;51.270;6.522;2023-07-20T06:23:54;22.10;60.70
28763;DHT22;15918;51.270;6.522;2023-07-20T06:26:20;22.10;60.30
28763;DHT22;15918;51.270;6.522;2023-07-20T06:28:46;22.10;60.20
28763;DHT22;15918;51.270;6.522;2023-07-20T06:31:11;22.20;60.20
28763;DHT22;15918;51.270;6.522;2023-07-20T06:33:37;22.10;60.10
28763;DHT22;15918;51.270;6.522;2023-07-20T06:36:03;22.20;60.40
28763;DHT22;15918;51.270;6.522;2023-07-20T06:38:29;22.10;60.30
28763;DHT22;15918;51.270;6.522;2023-07-20T06:40:55;22.10;60.10
28763;DHT22;15918;51.270;6.522;2023-07-20T06:43:20;22.20;60.10
28763;DHT22;15918;51.270;6.522;2023-07-20T06:45:51;22.20;59.90
28763;DHT22;15918;51.270;6.522;2023-07-20T06:48:18;22.20;59.80
28763;DHT22;15918;51.270;6.522;2023-07-20T06:50:43;22.20;59.70
28763;DHT22;15918;51.270;6.522;2023-07-20T06:53:09;22.20;59.60
28763;DHT22;15918;51.270;6.522;2023-07-20T06:55:34;22.20;59.50
28763;DHT22;15918;51.270;6.522;2023-07-20T06:58:00;22.20;59.50
28763;DHT22;15918;51.270;6.522;2023-07-20T07:00:25;22.20;59.40
28763;DHT22;15918;51.270;6.522;2023-07-20T07:02:51;22.20;59.50
28763;DHT22;15918;51.270;6.522;2023-07-20T07:05:17;22.30;59.40
28763;DHT22;15918;51.270;6.522;2023-07-20T07:07:43;22.30;59.30
28763;DHT22;15918;51.270;6.522;2023-07-20T07:10:09;22.30;59.20
28763;DHT22;15918;51.270;6.522;2023-07-20T07:12:34;22.30;59.20
28763;DHT22;15918;51.270;6.522;2023-07-20T07:15:02;22.30;59.30
28763;DHT22;15918;51.270;6.522;2023-07-20T07:17:27;22.40;59.30
28763;DHT22;15918;51.270;6.522;2023-07-20T07:19:53;22.40;59.10
28763;DHT22;15918;51.270;6.522;2023-07-20T07:22:22;22.40;59.70
28763;DHT22;15918;51.270;6.522;2023-07-20T07:24:47;22.40;58.90
28763;DHT22;15918;51.270;6.522;2023-07-20T07:27:13;22.40;58.80
28763;DHT22;15918;51.270;6.522;2023-07-20T07:29:41;22.50;58.80
28763;DHT22;15918;51.270;6.522;2023-07-20T07:32:10;22.50;58.70
28763;DHT22;15918;51.270;6.522;2023-07-20T07:34:36;22.50;58.60
28763;DHT22;15918;51.270;6.522;2023-07-20T07:37:02;22.50;58.70
28763;DHT22;15918;51.270;6.522;2023-07-20T07:39:28;22.60;58.60
28763;DHT22;15918;51.270;6.522;2023-07-20T07:41:55;22.60;58.60
28763;DHT22;15918;51.270;6.522;2023-07-20T07:44:20;22.60;58.40
28763;DHT22;15918;51.270;6.522;2023-07-20T07:46:46;22.60;58.30
28763;DHT22;15918;51.270;6.522;2023-07-20T07:49:12;22.70;58.30
28763;DHT22;15918;51.270;6.522;2023-07-20T07:51:38;22.70;58.10
28763;DHT22;15918;51.270;6.522;2023-07-20T07:54:04;22.70;57.90
28763;DHT22;15918;51.270;6.522;2023-07-20T07:56:30;22.70;57.90
28763;DHT22;15918;51.270;6.522;2023-07-20T07:58:55;22.80;57.90
28763;DHT22;15918;51.270;6.522;2023-07-20T08:01:21;22.80;57.80
28763;DHT22;15918;51.270;6.522;2023-07-20T08:03:47;22.80;57.70
28763;DHT22;15918;51.270;6.522;2023-07-20T08:06:13;22.90;57.70
28763;DHT22;15918;51.270;6.522;2023-07-20T08:08:39;22.90;57.60
28763;DHT22;15918;51.270;6.522;2023-07-20T08:11:05;22.90;57.60
28763;DHT22;15918;51.270;6.522;2023-07-20T08:13:31;22.90;57.50
28763;DHT22;15918;51.270;6.522;2023-07-20T08:15:57;23.00;57.50
28763;DHT22;15918;51.270;6.522;2023-07-20T08:18:22;23.00;57.50
28763;DHT22;15918;51.270;6.522;2023-07-20T08:20:48;23.00;57.40
28763;DHT22;15918;51.270;6.522;2023-07-20T08:23:14;23.00;57.30
28763;DHT22;15918;51.270;6.522;2023-07-20T08:25:40;23.10;57.30
28763;DHT22;15918;51.270;6.522;2023-07-20T08:28:10;23.10;57.10
28763;DHT22;15918;51.270;6.522;2023-07-20T08:30:43;23.20;56.90
28763;DHT22;15918;51.270;6.522;2023-07-20T08:33:10;23.20;56.80
28763;DHT22;15918;51.270;6.522;2023-07-20T08:35:36;23.20;56.50
28763;DHT22;15918;51.270;6.522;2023-07-20T08:38:02;23.30;56.30
28763;DHT22;15918;51.270;6.522;2023-07-20T08:40:27;23.30;56.10
28763;DHT22;15918;51.270;6.522;2023-07-20T08:42:54;23.30;55.90
28763;DHT22;15918;51.270;6.522;2023-07-20T08:45:22;23.30;55.80
28763;DHT22;15918;51.270;6.522;2023-07-20T08:47:51;23.30;55.90
28763;DHT22;15918;51.270;6.522;2023-07-20T08:50:17;23.40;56.00
28763;DHT22;15918;51.270;6.522;2023-07-20T08:52:43;23.40;55.90
28763;DHT22;15918;51.270;6.522;2023-07-20T08:55:09;23.50;55.60
28763;DHT22;15918;51.270;6.522;2023-07-20T08:57:36;23.60;55.60
28763;DHT22;15918;51.270;6.522;2023-07-20T09:00:03;23.50;55.40
28763;DHT22;15918;51.270;6.522;2023-07-20T09:02:39;23.50;55.20
28763;DHT22;15918;51.270;6.522;2023-07-20T09:05:08;23.60;55.10
28763;DHT22;15918;51.270;6.522;2023-07-20T09:07:40;23.60;55.00
28763;DHT22;15918;51.270;6.522;2023-07-20T09:10:09;23.70;54.80
28763;DHT22;15918;51.270;6.522;2023-07-20T09:12:37;23.70;54.60
28763;DHT22;15918;51.270;6.522;2023-07-20T09:15:04;23.70;54.60
28763;DHT22;15918;51.270;6.522;2023-07-20T09:17:30;23.70;54.30
28763;DHT22;15918;51.270;6.522;2023-07-20T09:19:55;23.80;54.20
28763;DHT22;15918;51.270;6.522;2023-07-20T09:22:21;23.80;54.40
28763;DHT22;15918;51.270;6.522;2023-07-20T09:24:47;23.80;53.90
28763;DHT22;15918;51.270;6.522;2023-07-20T09:27:13;23.80;53.80
28763;DHT22;15918;51.270;6.522;2023-07-20T09:30:05;23.90;53.80
28763;DHT22;15918;51.270;6.522;2023-07-20T09:32:38;23.90;53.70
28763;DHT22;15918;51.270;6.522;2023-07-20T09:35:05;23.90;53.70
28763;DHT22;15918;51.270;6.522;2023-07-20T09:37:33;23.90;53.80
28763;DHT22;15918;51.270;6.522;2023-07-20T09:39:59;23.90;53.80
28763;DHT22;15918;51.270;6.522;2023-07-20T09:42:25;24.00;53.80
28763;DHT22;15918;51.270;6.522;2023-07-20T09:44:52;24.00;53.80
28763;DHT22;15918;51.270;6.522;2023-07-20T09:47:22;24.00;53.70
28763;DHT22;15918;51.270;6.522;2023-07-20T09:49:48;24.00;53.60
28763;DHT22;15918;51.270;6.522;2023-07-20T09:52:15;24.10;53.70
28763;DHT22;15918;51.270;6.522;2023-07-20T09:54:44;24.10;53.70
28763;DHT22;15918;51.270;6.522;2023-07-20T09:57:11;24.10;53.60
28763;DHT22;15918;51.270;6.522;2023-07-20T09:59:39;24.10;53.40
28763;DHT22;15918;51.270;6.522;2023-07-20T10:02:11;24.10;53.10
28763;DHT22;15918;51.270;6.522;2023-07-20T10:04:40;24.20;52.90
28763;DHT22;15918;51.270;6.522;2023-07-20T10:07:10;24.20;52.90
28763;DHT22;15918;51.270;6.522;2023-07-20T10:09:39;24.20;52.80
28763;DHT22;15918;51.270;6.522;2023-07-20T10:12:07;24.20;52.80
28763;DHT22;15918;51.270;6.522;2023-07-20T10:14:36;24.20;52.50
28763;DHT22;15918;51.270;6.522;2023-07-20T10:17:04;24.30;52.30
28763;DHT22;15918;51.270;6.522;2023-07-20T10:19:46;24.30;52.30
28763;DHT22;15918;51.270;6.522;2023-07-20T10:22:15;24.40;52.30
28763;DHT22;15918;51.270;6.522;2023-07-20T10:24:45;24.40;52.40
28763;DHT22;15918;51.270;6.522;2023-07-20T10:27:12;24.40;52.60
28763;DHT22;15918;51.270;6.522;2023-07-20T10:29:40;24.40;52.20
28763;DHT22;15918;51.270;6.522;2023-07-20T10:32:06;24.40;52.20
28763;DHT22;15918;51.270;6.522;2023-07-20T10:34:33;24.50;52.20
28763;DHT22;15918;51.270;6.522;2023-07-20T10:36:59;24.50;51.70
28763;DHT22;15918;51.270;6.522;2023-07-20T10:39:29;24.50;51.70
28763;DHT22;15918;51.270;6.522;2023-07-20T10:42:09;24.50;51.30
28763;DHT22;15918;51.270;6.522;2023-07-20T10:44:39;24.60;51.10
28763;DHT22;15918;51.270;6.522;2023-07-20T10:47:12;24.50;51.40
28763;DHT22;15918;51.270;6.522;2023-07-20T10:50:00;24.60;51.40
28763;DHT22;15918;51.270;6.522;2023-07-20T10:52:26;24.60;51.50
28763;DHT22;15918;51.270;6.522;2023-07-20T10:55:16;24.60;51.20
28763;DHT22;15918;51.270;6.522;2023-07-20T10:57:42;24.60;51.10
28763;DHT22;15918;51.270;6.522;2023-07-20T11:00:12;24.60;51.10
28763;DHT22;15918;51.270;6.522;2023-07-20T11:02:46;24.70;50.90
28763;DHT22;15918;51.270;6.522;2023-07-20T11:05:31;24.70;50.80
28763;DHT22;15918;51.270;6.522;2023-07-20T11:07:57;24.70;50.10
28763;DHT22;15918;51.270;6.522;2023-07-20T11:10:23;24.70;50.30
28763;DHT22;15918;51.270;6.522;2023-07-20T11:13:17;24.80;50.50
28763;DHT22;15918;51.270;6.522;2023-07-20T11:18:25;24.80;50.30
28763;DHT22;15918;51.270;6.522;2023-07-20T11:20:52;24.80;50.30
28763;DHT22;15918;51.270;6.522;2023-07-20T11:23:20;24.80;50.20
28763;DHT22;15918;51.270;6.522;2023-07-20T11:25:45;24.90;50.30
28763;DHT22;15918;51.270;6.522;2023-07-20T11:28:11;24.90;50.10
28763;DHT22;15918;51.270;6.522;2023-07-20T11:30:38;24.90;50.20
28763;DHT22;15918;51.270;6.522;2023-07-20T11:33:08;24.90;50.10
28763;DHT22;15918;51.270;6.522;2023-07-20T11:35:44;24.90;50.10
28763;DHT22;15918;51.270;6.522;2023-07-20T11:38:13;24.90;50.00
28763;DHT22;15918;51.270;6.522;2023-07-20T11:40:46;24.90;49.80
28763;DHT22;15918;51.270;6.522;2023-07-20T11:43:13;25.00;49.60
28763;DHT22;15918;51.270;6.522;2023-07-20T11:45:39;25.00;49.70
28763;DHT22;15918;51.270;6.522;2023-07-20T11:48:05;25.00;49.50
28763;DHT22;15918;51.270;6.522;2023-07-20T11:50:31;25.10;49.40
28763;DHT22;15918;51.270;6.522;2023-07-20T11:52:57;25.10;49.50
28763;DHT22;15918;51.270;6.522;2023-07-20T11:55:23;25.10;49.40
28763;DHT22;15918;51.270;6.522;2023-07-20T12:00:27;25.20;49.00
28763;DHT22;15918;51.270;6.522;2023-07-20T12:02:53;25.10;49.10
28763;DHT22;15918;51.270;6.522;2023-07-20T12:05:19;25.20;49.10
28763;DHT22;15918;51.270;6.522;2023-07-20T12:07:47;25.20;48.60
28763;DHT22;15918;51.270;6.522;2023-07-20T12:10:15;25.20;48.60
28763;DHT22;15918;51.270;6.522;2023-07-20T12:12:42;25.10;48.60
28763;DHT22;15918;51.270;6.522;2023-07-20T12:15:21;25.20;48.80
28763;DHT22;15918;51.270;6.522;2023-07-20T12:17:52;25.20;48.90
28763;DHT22;15918;51.270;6.522;2023-07-20T12:22:51;25.20;48.90
28763;DHT22;15918;51.270;6.522;2023-07-20T12:25:16;25.20;49.00
28763;DHT22;15918;51.270;6.522;2023-07-20T12:27:44;25.20;48.40
28763;DHT22;15918;51.270;6.522;2023-07-20T12:30:10;25.20;48.10
28763;DHT22;15918;51.270;6.522;2023-07-20T12:32:35;25.20;48.20
28763;DHT22;15918;51.270;6.522;2023-07-20T12:35:01;25.30;48.20
28763;DHT22;15918;51.270;6.522;2023-07-20T12:37:27;25.30;48.30
28763;DHT22;15918;51.270;6.522;2023-07-20T12:39:53;25.30;48.20
28763;DHT22;15918;51.270;6.522;2023-07-20T12:42:18;25.30;47.90
28763;DHT22;15918;51.270;6.522;2023-07-20T12:44:44;25.30;48.00
28763;DHT22;15918;51.270;6.522;2023-07-20T12:47:10;25.30;48.00
28763;DHT22;15918;51.270;6.522;2023-07-20T12:49:35;25.30;48.00
28763;DHT22;15918;51.270;6.522;2023-07-20T12:52:01;25.30;47.90
28763;DHT22;15918;51.270;6.522;2023-07-20T12:54:26;25.30;48.00
28763;DHT22;15918;51.270;6.522;2023-07-20T12:56:52;25.30;48.00
28763;DHT22;15918;51.270;6.522;2023-07-20T12:59:18;25.30;47.90
28763;DHT22;15918;51.270;6.522;2023-07-20T13:01:44;25.30;47.90
28763;DHT22;15918;51.270;6.522;2023-07-20T13:04:09;25.30;47.90
28763;DHT22;15918;51.270;6.522;2023-07-20T13:06:35;25.30;47.80
28763;DHT22;15918;51.270;6.522;2023-07-20T13:09:01;25.30;47.60
28763;DHT22;15918;51.270;6.522;2023-07-20T13:11:27;25.30;47.60
28763;DHT22;15918;51.270;6.522;2023-07-20T13:13:53;25.30;47.30
28763;DHT22;15918;51.270;6.522;2023-07-20T13:16:18;25.30;47.20
28763;DHT22;15918;51.270;6.522;2023-07-20T13:18:44;25.30;47.20
28763;DHT22;15918;51.270;6.522;2023-07-20T13:21:09;25.20;47.30
28763;DHT22;15918;51.270;6.522;2023-07-20T13:23:39;25.30;47.60
28763;DHT22;15918;51.270;6.522;2023-07-20T13:26:05;25.20;47.60
28763;DHT22;15918;51.270;6.522;2023-07-20T13:28:31;25.20;47.60
28763;DHT22;15918;51.270;6.522;2023-07-20T13:30:56;25.30;47.60
28763;DHT22;15918;51.270;6.522;2023-07-20T13:33:22;25.20;47.30
28763;DHT22;15918;51.270;6.522;2023-07-20T13:35:47;25.30;47.40
28763;DHT22;15918;51.270;6.522;2023-07-20T13:38:13;25.30;47.20
28763;DHT22;15918;51.270;6.522;2023-07-20T13:40:39;25.20;47.30
28763;DHT22;15918;51.270;6.522;2023-07-20T13:43:04;25.30;47.10
28763;DHT22;15918;51.270;6.522;2023-07-20T13:45:30;25.30;47.10
28763;DHT22;15918;51.270;6.522;2023-07-20T13:47:55;25.30;47.20
28763;DHT22;15918;51.270;6.522;2023-07-20T13:50:21;25.30;47.20
28763;DHT22;15918;51.270;6.522;2023-07-20T13:52:47;25.30;47.20
28763;DHT22;15918;51.270;6.522;2023-07-20T13:55:12;25.30;47.30
28763;DHT22;15918;51.270;6.522;2023-07-20T13:57:38;25.30;47.20
28763;DHT22;15918;51.270;6.522;2023-07-20T14:00:04;25.20;47.10
28763;DHT22;15918;51.270;6.522;2023-07-20T14:02:30;25.30;47.20
28763;DHT22;15918;51.270;6.522;2023-07-20T14:04:56;25.30;47.20
28763;DHT22;15918;51.270;6.522;2023-07-20T14:07:22;25.30;47.30
28763;DHT22;15918;51.270;6.522;2023-07-20T14:09:48;25.20;47.30
28763;DHT22;15918;51.270;6.522;2023-07-20T14:12:13;25.30;47.20
28763;DHT22;15918;51.270;6.522;2023-07-20T14:14:40;25.30;47.00
28763;DHT22;15918;51.270;6.522;2023-07-20T14:17:07;25.30;46.90
28763;DHT22;15918;51.270;6.522;2023-07-20T14:19:32;25.30;47.00
28763;DHT22;15918;51.270;6.522;2023-07-20T14:21:58;25.30;47.00
28763;DHT22;15918;51.270;6.522;2023-07-20T14:24:25;25.30;47.00
28763;DHT22;15918;51.270;6.522;2023-07-20T14:26:51;25.30;46.90
28763;DHT22;15918;51.270;6.522;2023-07-20T14:29:17;25.30;47.00
28763;DHT22;15918;51.270;6.522;2023-07-20T14:31:44;25.30;46.80
28763;DHT22;15918;51.270;6.522;2023-07-20T14:34:10;25.30;47.40
28763;DHT22;15918;51.270;6.522;2023-07-20T14:36:36;25.20;47.20
28763;DHT22;15918;51.270;6.522;2023-07-20T14:39:01;25.30;46.90
28763;DHT22;15918;51.270;6.522;2023-07-20T14:41:27;25.30;47.10
28763;DHT22;15918;51.270;6.522;2023-07-20T14:43:53;25.30;46.90
28763;DHT22;15918;51.270;6.522;2023-07-20T14:46:18;25.30;46.90
28763;DHT22;15918;51.270;6.522;2023-07-20T14:48:44;25.30;47.00
28763;DHT22;15918;51.270;6.522;2023-07-20T14:51:10;25.20;46.80
28763;DHT22;15918;51.270;6.522;2023-07-20T14:53:35;25.20;46.60
28763;DHT22;15918;51.270;6.522;2023-07-20T14:56:01;25.20;46.80
28763;DHT22;15918;51.270;6.522;2023-07-20T14:58:27;25.30;46.60
28763;DHT22;15918;51.270;6.522;2023-07-20T15:00:53;25.30;47.20
28763;DHT22;15918;51.270;6.522;2023-07-20T15:03:18;25.30;46.50
28763;DHT22;15918;51.270;6.522;2023-07-20T15:05:44;25.20;46.40
28763;DHT22;15918;51.270;6.522;2023-07-20T15:08:10;25.30;46.50
28763;DHT22;15918;51.270;6.522;2023-07-20T15:10:35;25.30;46.50
28763;DHT22;15918;51.270;6.522;2023-07-20T15:13:01;25.30;46.40
28763;DHT22;15918;51.270;6.522;2023-07-20T15:15:28;25.20;46.40
28763;DHT22;15918;51.270;6.522;2023-07-20T15:17:53;25.30;46.50
28763;DHT22;15918;51.270;6.522;2023-07-20T15:20:20;25.30;46.40
28763;DHT22;15918;51.270;6.522;2023-07-20T15:22:45;25.30;46.10
28763;DHT22;15918;51.270;6.522;2023-07-20T15:25:11;25.30;46.10
28763;DHT22;15918;51.270;6.522;2023-07-20T15:27:37;25.30;45.90
28763;DHT22;15918;51.270;6.522;2023-07-20T15:30:04;25.30;45.80
28763;DHT22;15918;51.270;6.522;2023-07-20T15:32:30;25.30;46.00
28763;DHT22;15918;51.270;6.522;2023-07-20T15:34:55;25.30;46.00
28763;DHT22;15918;51.270;6.522;2023-07-20T15:37:21;25.30;46.10
28763;DHT22;15918;51.270;6.522;2023-07-20T15:39:50;25.30;46.10
28763;DHT22;15918;51.270;6.522;2023-07-20T15:42:16;25.30;46.10
28763;DHT22;15918;51.270;6.522;2023-07-20T15:44:42;25.30;45.80